sensor_id;sensor_type;location;lat;lon;timestamp;P1;durP1;ratioP1;P2;durP2;ratioP2
71353;SDS011;59393;51.652;4.864;2023-02-15T00:01:41;45.70;;;18.73;;
71353;SDS011;59393;51.652;4.864;2023-02-15T00:04:08;54.72;;;19.98;;
71353;SDS011;59393;51.652;4.864;2023-02-15T00:06:34;44.97;;;19.60;;
71353;SDS011;59393;51.652;4.864;2023-02-15T00:09:01;43.22;;;18.05;;
71353;SDS011;59393;51.652;4.864;2023-02-15T00:11:27;41.20;;;18.23;;
71353;SDS011;59393;51.652;4.864;2023-02-15T00:16:35;41.55;;;16.80;;
71353;SDS011;59393;51.652;4.864;2023-02-15T00:19:01;37.10;;;15.95;;
71353;SDS011;59393;51.652;4.864;2023-02-15T00:21:30;41.22;;;16.75;;
71353;SDS011;59393;51.652;4.864;2023-02-15T00:23:57;45.67;;;17.83;;
71353;SDS011;59393;51.652;4.864;2023-02-15T00:26:23;44.03;;;17.27;;
71353;SDS011;59393;51.652;4.864;2023-02-15T00:28:50;39.55;;;15.63;;
71353;SDS011;59393;51.652;4.864;2023-02-15T00:31:16;42.05;;;17.33;;
71353;SDS011;59393;51.652;4.864;2023-02-15T00:33:42;40.22;;;15.75;;
71353;SDS011;59393;51.652;4.864;2023-02-15T00:36:09;38.13;;;15.40;;
71353;SDS011;59393;51.652;4.864;2023-02-15T00:38:36;43.80;;;17.03;;
71353;SDS011;59393;51.652;4.864;2023-02-15T00:41:03;40.88;;;16.48;;
71353;SDS011;59393;51.652;4.864;2023-02-15T00:43:30;44.05;;;18.02;;
71353;SDS011;59393;51.652;4.864;2023-02-15T00:45:56;42.90;;;16.88;;
71353;SDS011;59393;51.652;4.864;2023-02-15T00:48:22;43.22;;;17.17;;
71353;SDS011;59393;51.652;4.864;2023-02-15T00:50:54;43.03;;;16.37;;
71353;SDS011;59393;51.652;4.864;2023-02-15T00:53:21;48.50;;;17.65;;
71353;SDS011;59393;51.652;4.864;2023-02-15T00:55:47;46.72;;;18.27;;
71353;SDS011;59393;51.652;4.864;2023-02-15T00:58:13;47.40;;;17.88;;
71353;SDS011;59393;51.652;4.864;2023-02-15T01:00:41;43.38;;;17.98;;
71353;SDS011;59393;51.652;4.864;2023-02-15T01:03:08;37.47;;;16.73;;
71353;SDS011;59393;51.652;4.864;2023-02-15T01:05:34;42.25;;;17.02;;
71353;SDS011;59393;51.652;4.864;2023-02-15T01:08:00;40.63;;;16.90;;
71353;SDS011;59393;51.652;4.864;2023-02-15T01:10:26;41.83;;;17.00;;
71353;SDS011;59393;51.652;4.864;2023-02-15T01:12:53;41.55;;;16.42;;
71353;SDS011;59393;51.652;4.864;2023-02-15T01:15:19;43.73;;;16.57;;
71353;SDS011;59393;51.652;4.864;2023-02-15T01:17:45;44.20;;;16.60;;
71353;SDS011;59393;51.652;4.864;2023-02-15T01:20:16;51.45;;;16.98;;
71353;SDS011;59393;51.652;4.864;2023-02-15T01:22:42;36.40;;;17.08;;
71353;SDS011;59393;51.652;4.864;2023-02-15T01:25:09;39.78;;;15.95;;
71353;SDS011;59393;51.652;4.864;2023-02-15T01:27:34;41.00;;;16.73;;
71353;SDS011;59393;51.652;4.864;2023-02-15T01:30:01;41.10;;;16.75;;
71353;SDS011;59393;51.652;4.864;2023-02-15T01:32:29;42.45;;;16.27;;
71353;SDS011;59393;51.652;4.864;2023-02-15T01:34:55;40.80;;;16.45;;
71353;SDS011;59393;51.652;4.864;2023-02-15T01:37:21;44.67;;;17.70;;
71353;SDS011;59393;51.652;4.864;2023-02-15T01:39:47;42.83;;;18.17;;
71353;SDS011;59393;51.652;4.864;2023-02-15T01:42:13;39.85;;;15.68;;
71353;SDS011;59393;51.652;4.864;2023-02-15T01:47:12;45.80;;;16.88;;
71353;SDS011;59393;51.652;4.864;2023-02-15T01:49:39;41.77;;;16.47;;
71353;SDS011;59393;51.652;4.864;2023-02-15T01:52:06;39.63;;;16.08;;
71353;SDS011;59393;51.652;4.864;2023-02-15T01:54:33;38.65;;;17.63;;
71353;SDS011;59393;51.652;4.864;2023-02-15T01:57:05;37.35;;;15.95;;
71353;SDS011;59393;51.652;4.864;2023-02-15T01:59:33;41.80;;;16.25;;
71353;SDS011;59393;51.652;4.864;2023-02-15T02:02:01;44.57;;;16.53;;
71353;SDS011;59393;51.652;4.864;2023-02-15T02:04:32;38.00;;;16.33;;
71353;SDS011;59393;51.652;4.864;2023-02-15T02:06:59;45.35;;;16.02;;
71353;SDS011;59393;51.652;4.864;2023-02-15T02:09:25;38.17;;;15.52;;
71353;SDS011;59393;51.652;4.864;2023-02-15T02:11:51;41.50;;;17.13;;
71353;SDS011;59393;51.652;4.864;2023-02-15T02:14:19;37.37;;;15.63;;
71353;SDS011;59393;51.652;4.864;2023-02-15T02:16:54;42.42;;;16.55;;
71353;SDS011;59393;51.652;4.864;2023-02-15T02:22:14;37.58;;;15.60;;
71353;SDS011;59393;51.652;4.864;2023-02-15T02:24:54;40.88;;;15.98;;
71353;SDS011;59393;51.652;4.864;2023-02-15T02:27:41;38.53;;;15.40;;
71353;SDS011;59393;51.652;4.864;2023-02-15T02:35:30;35.70;;;14.50;;
71353;SDS011;59393;51.652;4.864;2023-02-15T02:38:48;34.95;;;15.45;;
71353;SDS011;59393;51.652;4.864;2023-02-15T02:43:21;35.22;;;15.18;;
71353;SDS011;59393;51.652;4.864;2023-02-15T02:46:02;43.15;;;15.60;;
71353;SDS011;59393;51.652;4.864;2023-02-15T02:48:29;35.72;;;14.80;;
71353;SDS011;59393;51.652;4.864;2023-02-15T02:50:56;37.30;;;16.42;;
71353;SDS011;59393;51.652;4.864;2023-02-15T02:53:22;36.57;;;15.40;;
71353;SDS011;59393;51.652;4.864;2023-02-15T02:56:23;41.13;;;14.48;;
71353;SDS011;59393;51.652;4.864;2023-02-15T02:58:42;34.83;;;14.30;;
71353;SDS011;59393;51.652;4.864;2023-02-15T03:01:15;42.17;;;14.73;;
71353;SDS011;59393;51.652;4.864;2023-02-15T03:03:44;35.63;;;14.77;;
71353;SDS011;59393;51.652;4.864;2023-02-15T03:06:16;34.47;;;14.90;;
71353;SDS011;59393;51.652;4.864;2023-02-15T03:08:45;35.03;;;13.70;;
71353;SDS011;59393;51.652;4.864;2023-02-15T03:11:13;36.13;;;14.82;;
71353;SDS011;59393;51.652;4.864;2023-02-15T03:13:39;33.65;;;13.95;;
71353;SDS011;59393;51.652;4.864;2023-02-15T03:16:05;44.85;;;16.00;;
71353;SDS011;59393;51.652;4.864;2023-02-15T03:21:23;35.95;;;14.80;;
71353;SDS011;59393;51.652;4.864;2023-02-15T03:23:56;34.67;;;14.48;;
71353;SDS011;59393;51.652;4.864;2023-02-15T03:26:24;40.03;;;14.63;;
71353;SDS011;59393;51.652;4.864;2023-02-15T03:28:50;39.00;;;14.75;;
71353;SDS011;59393;51.652;4.864;2023-02-15T03:31:18;33.73;;;15.27;;
71353;SDS011;59393;51.652;4.864;2023-02-15T03:33:50;38.65;;;14.57;;
71353;SDS011;59393;51.652;4.864;2023-02-15T03:36:22;32.25;;;13.68;;
71353;SDS011;59393;51.652;4.864;2023-02-15T03:41:30;33.28;;;14.88;;
71353;SDS011;59393;51.652;4.864;2023-02-15T03:43:59;35.13;;;13.97;;
71353;SDS011;59393;51.652;4.864;2023-02-15T03:47:11;31.90;;;13.15;;
71353;SDS011;59393;51.652;4.864;2023-02-15T03:49:21;36.65;;;14.48;;
71353;SDS011;59393;51.652;4.864;2023-02-15T03:51:48;35.22;;;14.82;;
71353;SDS011;59393;51.652;4.864;2023-02-15T03:54:35;37.97;;;14.13;;
71353;SDS011;59393;51.652;4.864;2023-02-15T03:57:21;35.17;;;13.87;;
71353;SDS011;59393;51.652;4.864;2023-02-15T04:00:12;31.92;;;12.70;;
71353;SDS011;59393;51.652;4.864;2023-02-15T04:03:08;35.42;;;13.82;;
71353;SDS011;59393;51.652;4.864;2023-02-15T04:05:34;32.15;;;12.60;;
71353;SDS011;59393;51.652;4.864;2023-02-15T04:08:01;37.13;;;14.25;;
71353;SDS011;59393;51.652;4.864;2023-02-15T04:10:27;35.80;;;13.43;;
71353;SDS011;59393;51.652;4.864;2023-02-15T04:13:12;37.58;;;13.65;;
71353;SDS011;59393;51.652;4.864;2023-02-15T04:15:38;32.55;;;12.65;;
71353;SDS011;59393;51.652;4.864;2023-02-15T04:18:22;31.58;;;12.38;;
71353;SDS011;59393;51.652;4.864;2023-02-15T04:21:07;36.38;;;13.35;;
71353;SDS011;59393;51.652;4.864;2023-02-15T04:23:51;35.03;;;13.73;;
71353;SDS011;59393;51.652;4.864;2023-02-15T04:26:39;37.38;;;14.43;;
71353;SDS011;59393;51.652;4.864;2023-02-15T04:29:05;29.90;;;13.77;;
71353;SDS011;59393;51.652;4.864;2023-02-15T04:31:31;40.35;;;13.32;;
71353;SDS011;59393;51.652;4.864;2023-02-15T04:33:57;32.00;;;13.77;;
71353;SDS011;59393;51.652;4.864;2023-02-15T04:36:23;30.70;;;14.30;;
71353;SDS011;59393;51.652;4.864;2023-02-15T04:38:49;40.65;;;15.52;;
71353;SDS011;59393;51.652;4.864;2023-02-15T04:41:15;41.47;;;16.20;;
71353;SDS011;59393;51.652;4.864;2023-02-15T04:43:41;36.80;;;15.23;;
71353;SDS011;59393;51.652;4.864;2023-02-15T04:46:07;45.63;;;15.37;;
71353;SDS011;59393;51.652;4.864;2023-02-15T04:48:33;38.42;;;15.52;;
71353;SDS011;59393;51.652;4.864;2023-02-15T04:50:59;44.45;;;15.32;;
71353;SDS011;59393;51.652;4.864;2023-02-15T04:53:25;37.65;;;15.20;;
71353;SDS011;59393;51.652;4.864;2023-02-15T04:55:51;38.20;;;15.98;;
71353;SDS011;59393;51.652;4.864;2023-02-15T04:58:17;38.07;;;14.83;;
71353;SDS011;59393;51.652;4.864;2023-02-15T05:00:42;37.38;;;15.05;;
71353;SDS011;59393;51.652;4.864;2023-02-15T05:03:08;43.28;;;14.25;;
71353;SDS011;59393;51.652;4.864;2023-02-15T05:05:35;37.83;;;15.07;;
71353;SDS011;59393;51.652;4.864;2023-02-15T05:08:01;34.20;;;14.43;;
71353;SDS011;59393;51.652;4.864;2023-02-15T05:10:27;38.33;;;14.50;;
71353;SDS011;59393;51.652;4.864;2023-02-15T05:12:53;36.55;;;15.13;;
71353;SDS011;59393;51.652;4.864;2023-02-15T05:15:18;35.43;;;14.50;;
71353;SDS011;59393;51.652;4.864;2023-02-15T05:17:44;36.35;;;14.13;;
71353;SDS011;59393;51.652;4.864;2023-02-15T05:20:10;37.08;;;14.52;;
71353;SDS011;59393;51.652;4.864;2023-02-15T05:22:36;37.33;;;13.75;;
71353;SDS011;59393;51.652;4.864;2023-02-15T05:25:02;32.77;;;13.87;;
71353;SDS011;59393;51.652;4.864;2023-02-15T05:27:47;34.35;;;13.75;;
71353;SDS011;59393;51.652;4.864;2023-02-15T05:30:32;37.00;;;13.82;;
71353;SDS011;59393;51.652;4.864;2023-02-15T05:32:58;30.65;;;13.18;;
71353;SDS011;59393;51.652;4.864;2023-02-15T05:35:24;34.42;;;14.10;;
71353;SDS011;59393;51.652;4.864;2023-02-15T05:37:50;30.52;;;13.55;;
71353;SDS011;59393;51.652;4.864;2023-02-15T05:40:16;31.70;;;14.15;;
71353;SDS011;59393;51.652;4.864;2023-02-15T05:42:42;38.00;;;13.52;;
71353;SDS011;59393;51.652;4.864;2023-02-15T05:45:08;36.10;;;14.88;;
71353;SDS011;59393;51.652;4.864;2023-02-15T05:47:34;36.63;;;14.10;;
71353;SDS011;59393;51.652;4.864;2023-02-15T05:50:00;33.33;;;14.23;;
71353;SDS011;59393;51.652;4.864;2023-02-15T05:52:26;35.50;;;14.30;;
71353;SDS011;59393;51.652;4.864;2023-02-15T05:54:52;44.60;;;14.75;;
71353;SDS011;59393;51.652;4.864;2023-02-15T05:57:19;39.38;;;14.40;;
71353;SDS011;59393;51.652;4.864;2023-02-15T05:59:45;34.97;;;14.33;;
71353;SDS011;59393;51.652;4.864;2023-02-15T06:02:11;33.33;;;14.48;;
71353;SDS011;59393;51.652;4.864;2023-02-15T06:04:38;38.88;;;15.20;;
71353;SDS011;59393;51.652;4.864;2023-02-15T06:07:04;40.33;;;14.65;;
71353;SDS011;59393;51.652;4.864;2023-02-15T06:09:29;39.45;;;13.93;;
71353;SDS011;59393;51.652;4.864;2023-02-15T06:11:56;35.85;;;14.10;;
71353;SDS011;59393;51.652;4.864;2023-02-15T06:14:22;37.63;;;13.88;;
71353;SDS011;59393;51.652;4.864;2023-02-15T06:16:48;37.15;;;14.18;;
71353;SDS011;59393;51.652;4.864;2023-02-15T06:19:13;34.28;;;14.38;;
71353;SDS011;59393;51.652;4.864;2023-02-15T06:21:39;32.47;;;13.97;;
71353;SDS011;59393;51.652;4.864;2023-02-15T06:24:07;32.30;;;14.23;;
71353;SDS011;59393;51.652;4.864;2023-02-15T06:26:33;41.30;;;14.32;;
71353;SDS011;59393;51.652;4.864;2023-02-15T06:28:59;35.10;;;14.95;;
71353;SDS011;59393;51.652;4.864;2023-02-15T06:31:25;37.50;;;14.17;;
71353;SDS011;59393;51.652;4.864;2023-02-15T06:33:51;37.92;;;14.93;;
71353;SDS011;59393;51.652;4.864;2023-02-15T06:36:17;36.28;;;14.23;;
71353;SDS011;59393;51.652;4.864;2023-02-15T06:38:43;28.75;;;13.27;;
71353;SDS011;59393;51.652;4.864;2023-02-15T06:41:09;35.42;;;13.93;;
71353;SDS011;59393;51.652;4.864;2023-02-15T06:43:35;35.43;;;14.73;;
71353;SDS011;59393;51.652;4.864;2023-02-15T06:46:01;34.08;;;14.15;;
71353;SDS011;59393;51.652;4.864;2023-02-15T06:48:27;35.22;;;14.10;;
71353;SDS011;59393;51.652;4.864;2023-02-15T06:50:53;33.40;;;13.55;;
71353;SDS011;59393;51.652;4.864;2023-02-15T06:53:19;35.80;;;15.07;;
71353;SDS011;59393;51.652;4.864;2023-02-15T06:55:45;33.87;;;14.53;;
71353;SDS011;59393;51.652;4.864;2023-02-15T06:58:11;32.63;;;14.43;;
71353;SDS011;59393;51.652;4.864;2023-02-15T07:00:37;38.88;;;15.93;;
71353;SDS011;59393;51.652;4.864;2023-02-15T07:03:03;43.97;;;15.52;;
71353;SDS011;59393;51.652;4.864;2023-02-15T07:05:32;35.30;;;15.00;;
71353;SDS011;59393;51.652;4.864;2023-02-15T07:07:58;35.25;;;15.57;;
71353;SDS011;59393;51.652;4.864;2023-02-15T07:10:24;37.22;;;14.82;;
71353;SDS011;59393;51.652;4.864;2023-02-15T07:12:50;35.22;;;14.43;;
71353;SDS011;59393;51.652;4.864;2023-02-15T07:15:17;38.70;;;15.82;;
71353;SDS011;59393;51.652;4.864;2023-02-15T07:17:45;41.80;;;14.90;;
71353;SDS011;59393;51.652;4.864;2023-02-15T07:20:21;36.72;;;14.90;;
71353;SDS011;59393;51.652;4.864;2023-02-15T07:22:48;40.05;;;13.85;;
71353;SDS011;59393;51.652;4.864;2023-02-15T07:25:14;40.95;;;15.25;;
71353;SDS011;59393;51.652;4.864;2023-02-15T07:27:41;40.90;;;15.05;;
71353;SDS011;59393;51.652;4.864;2023-02-15T07:30:09;36.77;;;15.10;;
71353;SDS011;59393;51.652;4.864;2023-02-15T07:32:35;39.90;;;15.63;;
71353;SDS011;59393;51.652;4.864;2023-02-15T07:35:01;37.15;;;14.68;;
71353;SDS011;59393;51.652;4.864;2023-02-15T07:37:27;38.22;;;15.57;;
71353;SDS011;59393;51.652;4.864;2023-02-15T07:39:53;30.55;;;14.50;;
71353;SDS011;59393;51.652;4.864;2023-02-15T07:42:19;40.80;;;16.70;;
71353;SDS011;59393;51.652;4.864;2023-02-15T07:44:46;40.50;;;16.88;;
71353;SDS011;59393;51.652;4.864;2023-02-15T07:47:12;46.63;;;16.27;;
71353;SDS011;59393;51.652;4.864;2023-02-15T07:49:38;41.08;;;16.17;;
71353;SDS011;59393;51.652;4.864;2023-02-15T07:52:04;42.80;;;17.20;;
71353;SDS011;59393;51.652;4.864;2023-02-15T07:54:31;47.03;;;17.13;;
71353;SDS011;59393;51.652;4.864;2023-02-15T07:56:57;41.13;;;17.08;;
71353;SDS011;59393;51.652;4.864;2023-02-15T07:59:23;43.88;;;17.88;;
71353;SDS011;59393;51.652;4.864;2023-02-15T08:01:49;42.90;;;17.08;;
71353;SDS011;59393;51.652;4.864;2023-02-15T08:04:15;41.80;;;17.08;;
71353;SDS011;59393;51.652;4.864;2023-02-15T08:06:43;54.63;;;20.20;;
71353;SDS011;59393;51.652;4.864;2023-02-15T08:09:09;53.97;;;21.30;;
71353;SDS011;59393;51.652;4.864;2023-02-15T08:11:36;49.15;;;19.67;;
71353;SDS011;59393;51.652;4.864;2023-02-15T08:19:10;68.50;;;24.37;;
71353;SDS011;59393;51.652;4.864;2023-02-15T08:21:37;66.25;;;23.33;;
71353;SDS011;59393;51.652;4.864;2023-02-15T08:24:04;72.90;;;23.52;;
71353;SDS011;59393;51.652;4.864;2023-02-15T08:26:31;63.67;;;23.38;;
71353;SDS011;59393;51.652;4.864;2023-02-15T08:28:57;56.92;;;23.02;;
71353;SDS011;59393;51.652;4.864;2023-02-15T08:31:24;64.27;;;22.33;;
71353;SDS011;59393;51.652;4.864;2023-02-15T08:33:50;62.85;;;23.25;;
71353;SDS011;59393;51.652;4.864;2023-02-15T08:36:18;54.65;;;20.90;;
71353;SDS011;59393;51.652;4.864;2023-02-15T08:38:44;66.70;;;23.67;;
71353;SDS011;59393;51.652;4.864;2023-02-15T08:43:36;60.53;;;21.02;;
71353;SDS011;59393;51.652;4.864;2023-02-15T08:46:03;61.15;;;22.98;;
71353;SDS011;59393;51.652;4.864;2023-02-15T08:48:29;61.67;;;24.50;;
71353;SDS011;59393;51.652;4.864;2023-02-15T08:50:55;54.45;;;23.30;;
71353;SDS011;59393;51.652;4.864;2023-02-15T08:53:21;61.77;;;22.40;;
71353;SDS011;59393;51.652;4.864;2023-02-15T08:55:54;61.65;;;22.38;;
71353;SDS011;59393;51.652;4.864;2023-02-15T08:58:21;56.20;;;22.17;;
71353;SDS011;59393;51.652;4.864;2023-02-15T09:00:47;35.58;;;16.13;;
71353;SDS011;59393;51.652;4.864;2023-02-15T09:03:12;63.47;;;23.63;;
71353;SDS011;59393;51.652;4.864;2023-02-15T09:05:38;49.97;;;19.27;;
71353;SDS011;59393;51.652;4.864;2023-02-15T09:08:04;54.00;;;21.15;;
71353;SDS011;59393;51.652;4.864;2023-02-15T09:10:30;57.45;;;24.63;;
71353;SDS011;59393;51.652;4.864;2023-02-15T09:12:56;53.70;;;21.42;;
71353;SDS011;59393;51.652;4.864;2023-02-15T09:15:22;48.23;;;19.83;;
71353;SDS011;59393;51.652;4.864;2023-02-15T09:17:48;52.63;;;21.30;;
71353;SDS011;59393;51.652;4.864;2023-02-15T09:20:14;56.95;;;21.98;;
71353;SDS011;59393;51.652;4.864;2023-02-15T09:22:40;52.38;;;18.73;;
71353;SDS011;59393;51.652;4.864;2023-02-15T09:25:06;53.93;;;21.23;;
71353;SDS011;59393;51.652;4.864;2023-02-15T09:27:32;55.35;;;22.23;;
71353;SDS011;59393;51.652;4.864;2023-02-15T09:29:58;57.10;;;22.08;;
71353;SDS011;59393;51.652;4.864;2023-02-15T09:32:24;58.00;;;21.42;;
71353;SDS011;59393;51.652;4.864;2023-02-15T09:34:50;59.90;;;21.57;;
71353;SDS011;59393;51.652;4.864;2023-02-15T09:37:16;37.22;;;15.45;;
71353;SDS011;59393;51.652;4.864;2023-02-15T09:39:43;56.85;;;20.48;;
71353;SDS011;59393;51.652;4.864;2023-02-15T09:52:30;57.17;;;24.20;;
71353;SDS011;59393;51.652;4.864;2023-02-15T10:08:29;62.40;;;26.13;;
71353;SDS011;59393;51.652;4.864;2023-02-15T10:11:16;64.33;;;26.50;;
71353;SDS011;59393;51.652;4.864;2023-02-15T10:16:41;43.15;;;17.63;;
71353;SDS011;59393;51.652;4.864;2023-02-15T10:19:14;49.90;;;21.85;;
71353;SDS011;59393;51.652;4.864;2023-02-15T10:26:46;77.18;;;28.00;;
71353;SDS011;59393;51.652;4.864;2023-02-15T10:32:24;54.42;;;22.23;;
71353;SDS011;59393;51.652;4.864;2023-02-15T10:45:45;29.63;;;14.02;;
71353;SDS011;59393;51.652;4.864;2023-02-15T10:50:53;39.72;;;16.63;;
71353;SDS011;59393;51.652;4.864;2023-02-15T11:01:12;38.73;;;17.47;;
71353;SDS011;59393;51.652;4.864;2023-02-15T11:06:14;50.72;;;23.20;;
71353;SDS011;59393;51.652;4.864;2023-02-15T11:08:53;55.13;;;20.73;;
71353;SDS011;59393;51.652;4.864;2023-02-15T11:11:24;48.30;;;22.98;;
71353;SDS011;59393;51.652;4.864;2023-02-15T11:13:59;55.77;;;23.20;;
71353;SDS011;59393;51.652;4.864;2023-02-15T11:16:28;41.88;;;21.63;;
71353;SDS011;59393;51.652;4.864;2023-02-15T11:18:57;31.50;;;14.75;;
71353;SDS011;59393;51.652;4.864;2023-02-15T11:21:34;35.47;;;18.35;;
71353;SDS011;59393;51.652;4.864;2023-02-15T11:24:13;45.38;;;18.92;;
71353;SDS011;59393;51.652;4.864;2023-02-15T11:26:48;43.13;;;19.43;;
71353;SDS011;59393;51.652;4.864;2023-02-15T11:29:26;38.72;;;17.30;;
71353;SDS011;59393;51.652;4.864;2023-02-15T11:31:54;38.88;;;18.88;;
71353;SDS011;59393;51.652;4.864;2023-02-15T11:34:29;43.40;;;18.38;;
71353;SDS011;59393;51.652;4.864;2023-02-15T11:36:58;29.48;;;13.77;;
71353;SDS011;59393;51.652;4.864;2023-02-15T11:39:26;45.50;;;19.33;;
71353;SDS011;59393;51.652;4.864;2023-02-15T11:41:54;40.55;;;19.98;;
71353;SDS011;59393;51.652;4.864;2023-02-15T11:44:29;45.33;;;20.67;;
71353;SDS011;59393;51.652;4.864;2023-02-15T11:46:57;38.05;;;16.48;;
71353;SDS011;59393;51.652;4.864;2023-02-15T11:49:27;38.40;;;17.02;;
71353;SDS011;59393;51.652;4.864;2023-02-15T11:51:55;43.50;;;20.73;;
71353;SDS011;59393;51.652;4.864;2023-02-15T11:54:23;37.83;;;17.60;;
71353;SDS011;59393;51.652;4.864;2023-02-15T11:56:52;43.90;;;19.33;;
71353;SDS011;59393;51.652;4.864;2023-02-15T11:59:24;41.03;;;18.45;;
71353;SDS011;59393;51.652;4.864;2023-02-15T12:01:52;39.33;;;18.35;;
71353;SDS011;59393;51.652;4.864;2023-02-15T12:04:26;23.87;;;10.70;;
71353;SDS011;59393;51.652;4.864;2023-02-15T12:06:58;33.70;;;14.75;;
71353;SDS011;59393;51.652;4.864;2023-02-15T12:09:40;35.05;;;16.73;;
71353;SDS011;59393;51.652;4.864;2023-02-15T12:15:05;35.38;;;16.70;;
71353;SDS011;59393;51.652;4.864;2023-02-15T12:25:52;37.13;;;17.58;;
71353;SDS011;59393;51.652;4.864;2023-02-15T12:30:45;31.00;;;14.27;;
71353;SDS011;59393;51.652;4.864;2023-02-15T12:33:24;36.08;;;16.35;;
71353;SDS011;59393;51.652;4.864;2023-02-15T12:35:58;32.25;;;17.10;;
71353;SDS011;59393;51.652;4.864;2023-02-15T12:38:26;32.72;;;14.77;;
71353;SDS011;59393;51.652;4.864;2023-02-15T12:43:29;35.90;;;17.52;;
71353;SDS011;59393;51.652;4.864;2023-02-15T12:48:41;36.47;;;16.80;;
71353;SDS011;59393;51.652;4.864;2023-02-15T12:51:08;29.40;;;14.45;;
71353;SDS011;59393;51.652;4.864;2023-02-15T12:53:35;43.17;;;18.00;;
71353;SDS011;59393;51.652;4.864;2023-02-15T12:56:06;37.08;;;17.15;;
71353;SDS011;59393;51.652;4.864;2023-02-15T12:58:33;34.33;;;17.80;;
71353;SDS011;59393;51.652;4.864;2023-02-15T13:03:36;35.95;;;16.85;;
71353;SDS011;59393;51.652;4.864;2023-02-15T13:06:03;25.97;;;11.97;;
71353;SDS011;59393;51.652;4.864;2023-02-15T13:08:34;43.35;;;18.35;;
71353;SDS011;59393;51.652;4.864;2023-02-15T13:11:07;33.55;;;16.85;;
71353;SDS011;59393;51.652;4.864;2023-02-15T13:16:12;38.45;;;17.75;;
71353;SDS011;59393;51.652;4.864;2023-02-15T13:18:41;29.03;;;13.83;;
71353;SDS011;59393;51.652;4.864;2023-02-15T13:21:21;37.70;;;16.65;;
71353;SDS011;59393;51.652;4.864;2023-02-15T13:24:00;38.42;;;17.80;;
71353;SDS011;59393;51.652;4.864;2023-02-15T13:26:28;46.78;;;18.52;;
71353;SDS011;59393;51.652;4.864;2023-02-15T13:28:55;42.70;;;18.80;;
71353;SDS011;59393;51.652;4.864;2023-02-15T13:31:27;41.35;;;18.08;;
71353;SDS011;59393;51.652;4.864;2023-02-15T13:33:59;31.13;;;13.77;;
71353;SDS011;59393;51.652;4.864;2023-02-15T13:38:58;31.23;;;14.30;;
71353;SDS011;59393;51.652;4.864;2023-02-15T13:41:33;39.35;;;17.42;;
71353;SDS011;59393;51.652;4.864;2023-02-15T13:44:15;39.93;;;18.90;;
71353;SDS011;59393;51.652;4.864;2023-02-15T14:01:56;39.65;;;17.25;;
71353;SDS011;59393;51.652;4.864;2023-02-15T14:07:02;36.90;;;18.13;;
71353;SDS011;59393;51.652;4.864;2023-02-15T14:17:48;39.58;;;18.83;;
71353;SDS011;59393;51.652;4.864;2023-02-15T14:20:20;41.47;;;19.50;;
71353;SDS011;59393;51.652;4.864;2023-02-15T14:23:11;40.15;;;17.70;;
71353;SDS011;59393;51.652;4.864;2023-02-15T14:26:21;39.25;;;19.60;;
71353;SDS011;59393;51.652;4.864;2023-02-15T14:28:25;36.35;;;17.90;;
71353;SDS011;59393;51.652;4.864;2023-02-15T14:30:54;40.35;;;18.13;;
71353;SDS011;59393;51.652;4.864;2023-02-15T14:33:29;40.38;;;16.63;;
71353;SDS011;59393;51.652;4.864;2023-02-15T14:35:56;37.97;;;18.45;;
71353;SDS011;59393;51.652;4.864;2023-02-15T14:41:00;43.28;;;19.55;;
71353;SDS011;59393;51.652;4.864;2023-02-15T14:49:06;30.85;;;14.50;;
71353;SDS011;59393;51.652;4.864;2023-02-15T15:04:38;37.58;;;16.60;;
71353;SDS011;59393;51.652;4.864;2023-02-15T15:09:38;37.95;;;18.42;;
71353;SDS011;59393;51.652;4.864;2023-02-15T15:14:41;36.38;;;18.50;;
71353;SDS011;59393;51.652;4.864;2023-02-15T15:17:09;42.95;;;16.88;;
71353;SDS011;59393;51.652;4.864;2023-02-15T15:22:24;37.72;;;18.55;;
71353;SDS011;59393;51.652;4.864;2023-02-15T15:24:51;40.65;;;19.17;;
71353;SDS011;59393;51.652;4.864;2023-02-15T15:50:32;36.07;;;17.43;;
71353;SDS011;59393;51.652;4.864;2023-02-15T15:53:00;42.05;;;16.23;;
71353;SDS011;59393;51.652;4.864;2023-02-15T15:55:27;41.17;;;18.13;;
71353;SDS011;59393;51.652;4.864;2023-02-15T15:57:56;34.55;;;17.08;;
71353;SDS011;59393;51.652;4.864;2023-02-15T16:00:25;35.92;;;17.25;;
71353;SDS011;59393;51.652;4.864;2023-02-15T16:02:54;34.00;;;16.60;;
71353;SDS011;59393;51.652;4.864;2023-02-15T16:05:21;33.97;;;14.00;;
71353;SDS011;59393;51.652;4.864;2023-02-15T16:07:47;35.78;;;16.30;;
71353;SDS011;59393;51.652;4.864;2023-02-15T16:10:22;36.70;;;15.45;;
71353;SDS011;59393;51.652;4.864;2023-02-15T16:12:48;29.42;;;13.75;;
71353;SDS011;59393;51.652;4.864;2023-02-15T16:15:19;35.00;;;14.20;;
71353;SDS011;59393;51.652;4.864;2023-02-15T16:17:47;34.40;;;13.23;;
71353;SDS011;59393;51.652;4.864;2023-02-15T16:22:43;25.80;;;11.55;;
71353;SDS011;59393;51.652;4.864;2023-02-15T16:27:53;26.93;;;12.40;;
71353;SDS011;59393;51.652;4.864;2023-02-15T16:32:45;35.38;;;14.98;;
71353;SDS011;59393;51.652;4.864;2023-02-15T16:35:16;36.70;;;15.48;;
71353;SDS011;59393;51.652;4.864;2023-02-15T16:37:42;32.97;;;15.00;;
71353;SDS011;59393;51.652;4.864;2023-02-15T16:40:25;38.67;;;16.63;;
71353;SDS011;59393;51.652;4.864;2023-02-15T16:42:52;38.33;;;15.98;;
71353;SDS011;59393;51.652;4.864;2023-02-15T16:45:20;41.83;;;17.40;;
71353;SDS011;59393;51.652;4.864;2023-02-15T16:47:49;35.47;;;17.00;;
71353;SDS011;59393;51.652;4.864;2023-02-15T16:50:17;41.50;;;17.65;;
71353;SDS011;59393;51.652;4.864;2023-02-15T16:52:44;34.07;;;17.23;;
71353;SDS011;59393;51.652;4.864;2023-02-15T16:55:17;42.03;;;17.23;;
71353;SDS011;59393;51.652;4.864;2023-02-15T16:57:45;42.17;;;18.02;;
71353;SDS011;59393;51.652;4.864;2023-02-15T17:02:52;40.70;;;17.33;;
71353;SDS011;59393;51.652;4.864;2023-02-15T17:05:19;36.13;;;17.07;;
71353;SDS011;59393;51.652;4.864;2023-02-15T17:10:32;40.20;;;19.25;;
71353;SDS011;59393;51.652;4.864;2023-02-15T17:13:01;37.70;;;17.92;;
71353;SDS011;59393;51.652;4.864;2023-02-15T17:15:29;41.33;;;18.30;;
71353;SDS011;59393;51.652;4.864;2023-02-15T17:18:05;39.83;;;18.10;;
71353;SDS011;59393;51.652;4.864;2023-02-15T17:20:32;43.80;;;17.58;;
71353;SDS011;59393;51.652;4.864;2023-02-15T17:23:00;37.42;;;16.15;;
71353;SDS011;59393;51.652;4.864;2023-02-15T17:25:30;42.92;;;17.40;;
71353;SDS011;59393;51.652;4.864;2023-02-15T17:27:58;37.65;;;16.88;;
71353;SDS011;59393;51.652;4.864;2023-02-15T17:30:26;40.00;;;17.47;;
71353;SDS011;59393;51.652;4.864;2023-02-15T17:32:55;36.65;;;15.40;;
71353;SDS011;59393;51.652;4.864;2023-02-15T17:35:22;42.33;;;17.60;;
71353;SDS011;59393;51.652;4.864;2023-02-15T17:37:49;41.83;;;17.33;;
71353;SDS011;59393;51.652;4.864;2023-02-15T17:40:23;52.10;;;19.05;;
71353;SDS011;59393;51.652;4.864;2023-02-15T17:42:49;34.47;;;17.17;;
71353;SDS011;59393;51.652;4.864;2023-02-15T17:45:15;39.13;;;16.95;;
71353;SDS011;59393;51.652;4.864;2023-02-15T17:47:42;39.60;;;17.70;;
71353;SDS011;59393;51.652;4.864;2023-02-15T17:50:11;42.60;;;19.27;;
71353;SDS011;59393;51.652;4.864;2023-02-15T17:52:41;39.75;;;18.65;;
71353;SDS011;59393;51.652;4.864;2023-02-15T17:55:12;39.23;;;17.67;;
71353;SDS011;59393;51.652;4.864;2023-02-15T17:57:57;43.17;;;17.40;;